Terminal Aerodrome Forecast
Issued by NWS Wakefield, VA

Home | Current Version | Previous Version | Text Only | Print | Product List | Glossary On
Versions: 1 2 3 4 5 6 7 8 9 10 11 12 13 14
489
FTUS41 KAKQ 231125
TAFECG
TAF
KECG 231125Z 2312/2412 14005KT P6SM OVC090
     FM231800 16007KT P6SM BKN090
     FM232200 15007KT P6SM SCT150
     FM240600 12003KT 3SM BR SCT200=

USA.gov is the U.S. government's official web portal to all federal, state and local government web resources and services.